Time;durP1;ratioP1;P1;durP2;ratioP2;P2;SDS_P1;SDS_P2;PMS_P1;PMS_P2;Temp;Humidity;BMP_temperature;BMP_pressure;BME280_temperature;BME280_humidity;BME280_pressure;Samples;Min_cycle;Max_cycle;Signal;HPM_P1;HPM_P2
2022/09/10 00:01:28;;;;;;;0.70;0.70;;;15.20;79.80;;;15.13;66.30;94794.94;5000268;28;20224;-80
2022/09/10 00:03:56;;;;;;;0.70;0.70;;;15.20;80.00;;;15.15;66.27;94803.44;5015682;28;20662;-82
2022/09/10 00:06:26;;;;;;;0.60;0.60;;;15.20;80.20;;;15.13;66.70;94794.94;5030249;28;20216;-81
2022/09/10 00:08:56;;;;;;;0.70;0.70;;;15.20;80.30;;;15.14;66.86;94792.06;5013160;28;20197;-81
2022/09/10 00:11:31;;;;;;;0.60;0.60;;;15.10;80.30;;;15.15;67.04;94800.81;5012107;28;20225;-81
2022/09/10 00:14:05;;;;;;;0.60;0.60;;;15.10;80.60;;;15.13;67.20;94798.38;5007380;28;20250;-81
2022/09/10 00:16:32;;;;;;;0.60;0.60;;;15.10;80.60;;;15.15;67.67;94798.97;4996390;28;20238;-81
2022/09/10 00:19:00;;;;;;;0.60;0.60;;;15.20;80.70;;;15.18;67.58;94801.16;5024172;28;20642;-81
2022/09/10 00:21:28;;;;;;;0.80;0.80;;;15.20;80.90;;;15.21;67.11;94805.19;5032574;28;20232;-81
2022/09/10 00:23:56;;;;;;;0.60;0.60;;;15.20;81.00;;;15.17;68.52;94796.91;5022088;28;20209;-82
2022/09/10 00:26:34;;;;;;;0.60;0.60;;;15.20;81.20;;;15.23;67.69;94807.59;4996788;28;20217;-80
2022/09/10 00:29:01;;;;;;;0.60;0.60;;;15.20;81.40;;;15.25;68.34;94803.72;4996220;28;20200;-80
2022/09/10 00:31:31;;;;;;;0.60;0.60;;;15.30;81.40;;;15.27;68.95;94800.84;4982713;28;20247;-81
2022/09/10 00:34:01;;;;;;;0.70;0.70;;;15.30;81.60;;;15.30;68.60;94803.84;5029477;28;20306;-81
2022/09/10 00:36:36;;;;;;;0.80;0.80;;;15.30;81.60;;;15.30;68.84;94803.03;5012186;28;20223;-82
2022/09/10 00:39:09;;;;;;;0.50;0.50;;;15.30;81.60;;;15.33;68.70;94802.59;5006365;28;20216;-82
2022/09/10 00:41:39;;;;;;;0.50;0.50;;;15.40;81.60;;;15.32;68.43;94806.28;4996300;28;20232;-81
2022/09/10 00:44:42;;;;;;;0.60;0.60;;;15.30;81.50;;;15.32;67.84;94809.72;5011970;28;20197;-81
2022/09/10 00:47:35;;;;;;;0.50;0.50;;;15.40;81.80;;;15.34;68.54;94799.75;5012305;28;20307;-81
2022/09/10 00:50:21;;;;;;;0.60;0.60;;;15.40;81.80;;;15.36;68.31;94802.94;5025844;28;20205;-81
2022/09/10 00:52:55;;;;;;;0.60;0.60;;;15.40;81.60;;;15.38;67.77;94792.16;4999458;28;20228;-81
2022/09/10 00:55:23;;;;;;;0.60;0.60;;;15.40;81.50;;;15.41;68.13;94796.19;5012126;28;20173;-81
2022/09/10 00:57:53;;;;;;;0.60;0.60;;;15.40;81.30;;;15.41;67.92;94799.63;5018084;28;20216;-81
2022/09/10 01:00:21;;;;;;;0.80;0.80;;;15.40;81.30;;;15.42;68.05;94788.03;5002155;28;20251;-81
2022/09/10 01:02:48;;;;;;;0.70;0.70;;;15.40;81.20;;;15.40;68.08;94782.16;4985728;28;20211;-82
2022/09/10 01:05:17;;;;;;;0.80;0.80;;;15.50;81.40;;;15.43;68.09;94783.53;5014756;28;20209;-80
2022/09/10 01:07:44;;;;;;;0.70;0.70;;;15.40;81.20;;;15.43;68.29;94772.97;4995646;28;20221;-81
2022/09/10 01:10:29;;;;;;;0.60;0.60;;;15.40;81.20;;;15.42;67.89;94771.38;4996712;28;20211;-81
2022/09/10 01:13:31;;;;;;;0.57;0.57;;;15.40;81.30;;;15.44;68.17;94778.06;5007381;28;20239;-81
2022/09/10 01:16:02;;;;;;;0.60;0.60;;;15.40;81.30;;;15.45;68.15;94774.38;5015315;28;20200;-80
2022/09/10 01:18:40;;;;;;;0.70;0.70;;;15.50;81.20;;;15.45;67.70;94779.66;5029564;28;20212;-81
2022/09/10 01:21:19;;;;;;;0.50;0.50;;;15.50;81.20;;;15.46;67.95;94773.31;5030355;28;20249;-81
2022/09/10 01:24:09;;;;;;;0.60;0.60;;;15.50;81.10;;;15.43;68.03;94772.97;5031518;28;20198;-78
2022/09/10 01:26:57;;;;;;;0.60;0.60;;;15.50;81.10;;;15.42;67.76;94776.66;5031535;28;20299;-82
2022/09/10 01:30:08;;;;;;;0.60;0.60;;;15.50;81.20;;;15.41;67.82;94775.06;5021356;28;20223;-81
2022/09/10 01:33:15;;;;;;;0.50;0.50;;;15.50;81.20;;;15.40;67.55;94779.50;5014432;28;20220;-81
2022/09/10 01:35:50;;;;;;;0.52;0.52;;;15.50;81.10;;;15.42;67.63;94785.38;5013852;28;20666;-82
2022/09/10 01:38:40;;;;;;;0.60;0.60;;;15.50;81.10;;;15.43;67.84;94775.63;5021646;28;20195;-81
2022/09/10 01:41:09;;;;;;;0.50;0.50;;;15.50;81.30;;;15.47;67.56;94769.66;4993926;28;20244;-82
2022/09/10 01:43:40;;;;;;;0.60;0.60;;;15.50;81.30;;;15.51;67.44;94778.75;4980296;28;20292;-80
2022/09/10 01:46:29;;;;;;;0.70;0.70;;;15.50;81.30;;;15.57;67.55;94774.38;4999489;28;20335;-83
2022/09/10 01:49:36;;;;;;;0.60;0.60;;;15.50;81.30;;;15.57;67.78;94763.81;5027820;28;20694;-81
2022/09/10 01:52:27;;;;;;;0.50;0.50;;;15.50;81.30;;;15.58;67.31;94765.44;4995120;28;20599;-81
2022/09/10 01:55:29;;;;;;;0.70;0.70;;;15.60;81.40;;;15.58;67.75;94765.44;4995250;28;20670;-82
2022/09/10 01:58:10;;;;;;;0.50;0.50;;;15.60;81.30;;;15.58;67.45;94765.44;5027389;28;20219;-81
2022/09/10 02:01:13;;;;;;;0.60;0.60;;;15.60;81.10;;;15.62;67.18;94766.59;5031002;28;20206;-80
2022/09/10 02:03:45;;;;;;;0.60;0.60;;;15.60;81.20;;;15.60;67.13;94763.38;5024583;28;20659;-82
2022/09/10 02:06:18;;;;;;;0.60;0.60;;;15.60;81.00;;;15.64;67.20;94766.38;4999223;28;20224;-82
2022/09/10 02:08:50;;;;;;;0.60;0.60;;;15.60;81.80;;;15.64;66.78;94771.66;5023431;28;20215;-81
2022/09/10 02:11:18;;;;;;;0.60;0.60;;;15.60;80.80;;;15.63;66.92;94770.03;5014782;28;20220;-81
2022/09/10 02:13:49;;;;;;;0.60;0.60;;;15.60;80.70;;;15.60;66.60;94765.19;5010118;28;20209;-81
2022/09/10 02:16:39;;;;;;;0.63;0.63;;;15.50;80.50;;;15.56;66.71;94777.28;5001064;28;20231;-82
2022/09/10 02:19:07;;;;;;;0.60;0.60;;;15.50;80.70;;;15.51;67.11;94770.84;5017798;28;20650;-80
2022/09/10 02:21:34;;;;;;;0.70;0.70;;;15.50;80.60;;;15.48;66.94;94768.63;4982631;28;20903;-81
2022/09/10 02:24:09;;;;;;;0.50;0.50;;;15.50;80.60;;;15.43;67.21;94765.03;4995498;28;20239;-80
2022/09/10 02:26:41;;;;;;;0.70;0.70;;;15.40;80.70;;;15.41;66.63;94775.06;5014713;28;20361;-81
2022/09/10 02:29:12;;;;;;;0.70;0.70;;;15.40;80.60;;;15.37;66.92;94758.84;4982843;28;20201;-80
2022/09/10 02:31:41;;;;;;;0.60;0.60;;;15.40;80.70;;;15.32;67.35;94759.50;5018323;28;20228;-81
2022/09/10 02:34:10;;;;;;;0.70;0.70;;;15.40;80.80;;;15.31;67.13;94763.19;5014894;28;20196;-81
2022/09/10 02:36:38;;;;;;;0.60;0.60;;;15.30;80.80;;;15.31;67.22;94772.94;5014013;28;20278;-81
2022/09/10 02:39:06;;;;;;;0.80;0.80;;;15.40;80.90;;;15.24;67.18;94770.38;5001888;28;20560;-80
2022/09/10 02:41:34;;;;;;;0.60;0.60;;;15.30;80.70;;;15.25;67.03;94771.22;4993927;28;20238;-81
2022/09/10 02:44:03;;;;;;;0.60;0.60;;;15.30;80.60;;;15.21;66.61;94763.72;5004123;28;20196;-82
2022/09/10 02:46:30;;;;;;;0.70;0.70;;;15.20;80.50;;;15.13;66.56;94757.94;5010558;28;20216;-80
2022/09/10 02:48:58;;;;;;;0.70;0.70;;;15.20;80.40;;;15.11;66.58;94770.56;4999703;28;20254;-81
2022/09/10 02:51:29;;;;;;;0.60;0.60;;;15.10;80.30;;;15.05;66.81;94777.56;4999937;28;20220;-82
2022/09/10 02:53:58;;;;;;;0.70;0.70;;;15.10;80.20;;;14.98;66.61;94771.56;4997717;28;20467;-82
2022/09/10 02:56:25;;;;;;;0.60;0.60;;;15.10;80.20;;;14.92;66.45;94765.31;5006756;28;20224;-81
2022/09/10 02:58:53;;;;;;;0.60;0.60;;;14.90;80.20;;;14.86;66.96;94769.66;4996428;28;20703;-81
2022/09/10 03:01:23;;;;;;;0.70;0.70;;;14.90;80.30;;;14.81;67.05;94771.34;4996733;28;20240;-81
2022/09/10 03:04:02;;;;;;;0.60;0.60;;;14.80;80.40;;;14.78;66.92;94763.88;5007634;28;20300;-81
2022/09/10 03:06:30;;;;;;;0.77;0.77;;;14.80;80.40;;;14.73;66.99;94772.44;4996263;28;20304;-82
2022/09/10 03:08:57;;;;;;;0.70;0.70;;;14.80;80.40;;;14.67;67.16;94774.16;4980208;28;20520;-83
2022/09/10 03:11:26;;;;;;;0.70;0.70;;;14.70;80.40;;;14.64;67.37;94774.56;5014950;28;20212;-83
2022/09/10 03:13:54;;;;;;;0.60;0.60;;;14.70;80.50;;;14.63;67.07;94780.84;5002152;28;20576;-82
2022/09/10 03:16:23;;;;;;;0.60;0.60;;;14.70;80.60;;;14.61;67.29;94780.28;5022558;28;20626;-81
2022/09/10 03:18:51;;;;;;;0.70;0.70;;;14.60;80.70;;;14.57;67.68;94779.91;5016710;28;20204;-82
2022/09/10 03:21:26;;;;;;;0.70;0.70;;;14.60;80.80;;;14.57;67.45;94773.81;5025443;28;20311;-83
2022/09/10 03:23:56;;;;;;;0.70;0.70;;;14.60;81.00;;;14.55;67.62;94773.25;5001774;28;20215;-83
2022/09/10 03:26:27;;;;;;;0.60;0.60;;;14.60;80.90;;;14.55;67.59;94768.75;5016033;28;20221;-82
2022/09/10 03:28:54;;;;;;;0.60;0.60;;;14.70;81.00;;;14.53;68.33;94778.72;5033814;28;20204;-83
2022/09/10 03:31:26;;;;;;;0.80;0.80;;;14.60;81.10;;;14.54;68.01;94779.56;5000026;28;20286;-81
2022/09/10 03:33:53;;;;;;;0.70;0.70;;;14.60;81.00;;;14.54;67.46;94771.63;5010263;28;20671;-83
2022/09/10 03:36:21;;;;;;;0.70;0.70;;;14.60;81.00;;;14.52;67.53;94773.69;5004616;28;20231;-83
2022/09/10 03:38:49;;;;;;;0.75;0.75;;;14.60;81.00;;;14.48;67.35;94772.50;5017381;28;20212;-83
2022/09/10 03:41:16;;;;;;;0.80;0.80;;;14.50;81.00;;;14.51;67.44;94780.81;5003059;28;20312;-83
2022/09/10 03:43:44;;;;;;;0.50;0.50;;;14.50;81.00;;;14.43;67.70;94770.53;5017100;28;20298;-83
2022/09/10 03:46:12;;;;;;;0.60;0.60;;;14.50;81.00;;;14.47;67.29;94776.16;5008669;28;20217;-83
2022/09/10 03:48:42;;;;;;;0.80;0.80;;;14.50;81.00;;;14.41;67.61;94786.59;4997863;28;20637;-83
2022/09/10 03:51:10;;;;;;;0.70;0.70;;;14.50;81.10;;;14.41;67.28;94776.03;5028101;28;20235;-84
2022/09/10 03:53:39;;;;;;;0.70;0.70;;;14.40;81.10;;;14.42;67.68;94776.81;4997771;28;20208;-83
2022/09/10 03:56:10;;;;;;;0.60;0.60;;;14.40;81.20;;;14.40;67.50;94784.97;5027659;28;20227;-83
2022/09/10 03:58:38;;;;;;;0.60;0.60;;;14.40;81.20;;;14.34;68.12;94774.47;4998575;28;20209;-83
2022/09/10 04:01:07;;;;;;;0.60;0.60;;;14.40;81.30;;;14.40;68.44;94784.97;4996921;28;20286;-82
2022/09/10 04:03:38;;;;;;;0.50;0.50;;;14.40;81.50;;;14.40;68.32;94786.78;5014104;28;20263;-84
2022/09/10 04:06:13;;;;;;;0.50;0.50;;;14.40;81.60;;;14.44;68.50;94785.34;4981768;28;20203;-83
2022/09/10 04:08:42;;;;;;;0.57;0.57;;;14.40;81.90;;;14.49;68.53;94789.94;4981296;28;20211;-83
2022/09/10 04:11:12;;;;;;;0.60;0.60;;;14.50;82.00;;;14.51;68.95;94790.53;5013651;28;20221;-82
2022/09/10 04:13:41;;;;;;;0.60;0.60;;;14.50;82.00;;;14.56;68.97;94794.13;5010472;28;20216;-84
2022/09/10 04:16:10;;;;;;;0.40;0.40;;;14.60;82.20;;;14.63;69.05;94786.13;5012207;28;20225;-83
2022/09/10 04:18:38;;;;;;;0.50;0.50;;;14.60;82.30;;;14.69;68.90;94789.75;5013595;28;20205;-83
2022/09/10 04:21:08;;;;;;;0.50;0.50;;;14.70;83.10;;;14.71;68.38;94775.31;5013120;28;20294;-83
2022/09/10 04:23:40;;;;;;;0.73;0.73;;;14.70;82.40;;;14.83;68.93;94777.19;5006331;28;20219;-83
2022/09/10 04:26:17;;;;;;;0.50;0.50;;;14.80;82.50;;;14.83;68.47;94774.56;5024390;28;20327;-83
2022/09/10 04:28:47;;;;;;;0.40;0.40;;;14.80;82.40;;;14.94;68.71;94786.22;4999488;28;20201;-83
2022/09/10 04:31:16;;;;;;;0.50;0.50;;;14.90;82.30;;;14.94;69.11;94775.66;5010380;28;20228;-82
2022/09/10 04:33:44;;;;;;;0.60;0.60;;;14.90;82.20;;;15.02;68.16;94784.06;5010498;28;20211;-83
2022/09/10 04:36:13;;;;;;;0.55;0.55;;;15.00;82.00;;;15.03;67.93;94777.78;4990006;28;20216;-83
2022/09/10 04:38:42;;;;;;;0.52;0.52;;;15.00;81.80;;;14.98;68.46;94779.47;5010870;28;20274;-82
2022/09/10 04:41:14;;;;;;;0.50;0.50;;;15.00;81.60;;;15.01;68.26;94784.31;5010219;28;20591;-82
2022/09/10 04:43:42;;;;;;;0.80;0.80;;;15.10;81.60;;;14.97;67.95;94783.94;4995843;28;20197;-82
2022/09/10 04:46:09;;;;;;;0.52;0.52;;;15.00;81.40;;;14.93;67.80;94780.16;5010413;28;20275;-82
2022/09/10 04:48:40;;;;;;;0.80;0.80;;;15.00;81.30;;;14.94;67.60;94784.41;5010198;28;20196;-81
2022/09/10 04:51:12;;;;;;;0.70;0.70;;;15.00;81.30;;;14.91;67.65;94784.03;5010092;28;20299;-83
2022/09/10 04:53:48;;;;;;;0.60;0.60;;;15.00;81.30;;;14.81;67.69;94774.78;4999734;28;20207;-82
2022/09/10 04:56:20;;;;;;;0.60;0.60;;;14.90;81.10;;;14.83;67.57;94788.59;4996472;28;20240;-81
2022/09/10 04:58:48;;;;;;;0.60;0.60;;;14.90;81.20;;;14.81;67.84;94788.00;5009651;28;20234;-82
2022/09/10 05:01:15;;;;;;;0.80;0.80;;;14.90;81.20;;;14.79;67.89;94787.41;5025969;28;20678;-82
2022/09/10 05:03:44;;;;;;;0.50;0.50;;;14.80;81.20;;;14.75;68.25;94782.81;5010206;28;20233;-80
2022/09/10 05:06:12;;;;;;;0.40;0.40;;;14.80;81.30;;;14.76;68.11;94792.31;4998159;28;20623;-81
2022/09/10 05:08:40;;;;;;;0.60;0.60;;;14.80;81.30;;;14.75;67.55;94782.81;5005904;28;20304;-81
2022/09/10 05:11:12;;;;;;;0.47;0.47;;;14.80;81.30;;;14.74;67.97;94787.25;5003445;28;20216;-82
2022/09/10 05:13:41;;;;;;;0.60;0.60;;;14.80;81.40;;;14.72;67.80;94787.50;5015945;28;20647;-82
2022/09/10 05:16:12;;;;;;;0.60;0.60;;;14.80;81.40;;;14.74;67.82;94792.53;5014215;28;20224;-80
2022/09/10 05:18:40;;;;;;;0.73;0.73;;;14.80;81.60;;;14.72;68.13;94790.13;5004982;28;20519;-80
2022/09/10 05:21:09;;;;;;;0.80;0.80;;;14.80;81.60;;;14.75;68.55;94791.53;5005130;28;20811;-81
2022/09/10 05:23:38;;;;;;;0.63;0.63;;;14.80;81.80;;;14.77;68.71;94788.66;4993180;28;20319;-80
2022/09/10 05:26:06;;;;;;;0.60;0.60;;;14.80;81.80;;;14.81;68.40;94805.69;5009533;28;20583;-79
2022/09/10 05:28:34;;;;;;;0.50;0.50;;;14.80;81.90;;;14.83;69.67;94809.72;4989119;28;20722;-80
2022/09/10 05:31:08;;;;;;;0.60;0.60;;;14.90;82.20;;;14.90;69.17;94806.97;5025911;28;20283;-81
2022/09/10 05:33:39;;;;;;;0.60;0.60;;;14.90;82.20;;;14.87;69.51;94802.16;5000771;28;20230;-82
2022/09/10 05:36:09;;;;;;;0.80;0.80;;;15.00;82.30;;;14.95;69.24;94806.31;5022658;28;20666;-82
2022/09/10 05:38:38;;;;;;;0.80;0.80;;;15.00;82.20;;;14.98;68.93;94804.03;5008400;28;20205;-82
2022/09/10 05:41:10;;;;;;;0.60;0.60;;;15.10;82.10;;;15.03;69.20;94804.19;5023875;28;20613;-81
2022/09/10 05:43:42;;;;;;;0.60;0.60;;;15.10;82.10;;;15.03;69.81;94812.09;5024190;28;20236;-81
2022/09/10 05:46:10;;;;;;;0.50;0.50;;;15.10;82.20;;;15.07;69.27;94806.41;5007326;28;20607;-81
2022/09/10 05:48:40;;;;;;;0.50;0.50;;;15.20;82.30;;;15.14;69.63;94810.56;5016721;28;20289;-80
2022/09/10 05:51:09;;;;;;;0.80;0.80;;;15.20;82.40;;;15.14;69.91;94809.75;4994481;28;20226;-82
2022/09/10 05:53:40;;;;;;;0.60;0.60;;;15.20;82.30;;;15.19;69.89;94815.97;5008289;28;20713;-81
2022/09/10 05:56:07;;;;;;;0.60;0.60;;;15.30;82.40;;;15.25;69.08;94819.56;5007344;28;20674;-81
2022/09/10 05:58:35;;;;;;;0.50;0.50;;;15.30;82.30;;;15.27;69.54;94814.06;5008831;28;20568;-81
2022/09/10 06:01:05;;;;;;;0.52;0.52;;;15.40;82.40;;;15.31;69.75;94812.59;5023584;28;20200;-80
2022/09/10 06:03:33;;;;;;;0.73;0.73;;;15.40;82.50;;;15.35;70.16;94814.53;5010011;28;20227;-81
2022/09/10 06:06:01;;;;;;;0.70;0.70;;;15.50;82.60;;;15.39;70.04;94804.31;4991681;28;20802;-81
2022/09/10 06:08:32;;;;;;;0.50;0.50;;;15.50;82.70;;;15.43;70.04;94808.16;5038290;28;20286;-79
2022/09/10 06:11:06;;;;;;;0.70;0.70;;;15.60;82.60;;;15.47;69.85;94804.03;5027039;28;20203;-81
2022/09/10 06:13:41;;;;;;;0.50;0.50;;;15.60;82.40;;;15.47;69.70;94808.50;5027320;28;20211;-80
2022/09/10 06:16:08;;;;;;;0.60;0.60;;;15.60;82.20;;;15.52;69.06;94806.78;5012124;28;20223;-81
2022/09/10 06:18:37;;;;;;;0.50;0.50;;;15.60;82.00;;;15.51;69.60;94805.19;5011905;28;20220;-81
2022/09/10 06:21:15;;;;;;;0.50;0.50;;;15.60;82.00;;;15.50;69.62;94803.59;5028613;28;20195;-81
2022/09/10 06:23:46;;;;;;;0.70;0.70;;;15.70;82.00;;;15.51;69.04;94799.09;4995088;28;20689;-81
2022/09/10 06:26:17;;;;;;;0.50;0.50;;;15.70;82.00;;;15.50;69.20;94803.59;5026757;28;20220;-81
2022/09/10 06:28:47;;;;;;;0.50;0.50;;;15.70;82.00;;;15.52;69.06;94804.13;5000141;28;20221;-81
2022/09/10 06:31:18;;;;;;;0.60;0.60;;;15.70;82.00;;;15.53;69.25;94811.03;5008643;28;20634;-81
2022/09/10 06:33:48;;;;;;;0.50;0.50;;;15.60;82.10;;;15.54;69.52;94811.88;5017953;28;20197;-81
2022/09/10 06:36:21;;;;;;;0.60;0.60;;;15.70;82.40;;;15.59;70.03;94813.84;5005025;28;20608;-80
2022/09/10 06:38:56;;;;;;;0.60;0.60;;;15.80;82.50;;;15.62;69.95;94806.25;5006067;28;20296;-80
2022/09/10 06:41:25;;;;;;;0.68;0.68;;;15.90;82.90;;;15.70;70.66;94810.41;4999440;28;20694;-80
2022/09/10 06:43:59;;;;;;;0.60;0.60;;;15.80;82.90;;;15.80;70.08;94807.22;5010696;28;20705;-81
2022/09/10 06:46:32;;;;;;;0.55;0.55;;;15.90;82.90;;;15.86;70.32;94802.91;5011377;28;20216;-81
2022/09/10 06:49:20;;;;;;;0.60;0.60;;;15.90;82.80;;;15.91;69.90;94803.81;5009895;28;20573;-81
2022/09/10 06:51:50;;;;;;;0.50;0.50;;;16.00;82.70;;;15.94;69.50;94810.47;5012318;28;20212;-80
2022/09/10 06:54:18;;;;;;;0.50;0.50;;;16.00;82.50;;;16.00;69.13;94822.78;5030354;28;20654;-80
2022/09/10 06:56:47;;;;;;;0.60;0.60;;;16.00;82.40;;;16.05;69.28;94817.66;5026661;28;20204;-81
2022/09/10 06:59:17;;;;;;;0.60;0.60;;;16.10;82.30;;;16.07;69.23;94820.06;4992454;28;20201;-81
2022/09/10 07:01:46;;;;;;;0.60;0.60;;;16.10;82.40;;;16.04;68.92;94810.75;4991202;28;20703;-80
2022/09/10 07:04:19;;;;;;;0.60;0.60;;;16.10;82.30;;;16.13;69.13;94814.63;5011857;28;20200;-81
2022/09/10 07:06:48;;;;;;;0.60;0.60;;;16.10;82.30;;;16.15;69.08;94817.88;5020926;28;20215;-81
2022/09/10 07:09:16;;;;;;;0.50;0.50;;;16.20;83.30;;;16.19;69.14;94809.50;5014162;28;20192;-82
2022/09/10 07:12:03;;;;;;;0.50;0.50;;;16.20;82.60;;;16.29;69.51;94815.81;5016682;28;20216;-81
2022/09/10 07:14:34;;;;;;;0.75;0.75;;;16.30;82.80;;;16.41;69.73;94810.50;5011478;28;20215;-82
2022/09/10 07:17:05;;;;;;;0.50;0.50;;;16.40;83.10;;;16.54;69.74;94811.31;5017158;28;20578;-81
2022/09/10 07:19:36;;;;;;;0.60;0.60;;;16.50;83.50;;;16.71;69.94;94814.06;5011811;28;20211;-81
2022/09/10 07:22:10;;;;;;;0.50;0.50;;;16.70;83.60;;;16.90;69.89;94823.47;5001949;28;20235;-81
2022/09/10 07:24:38;;;;;;;0.50;0.50;;;16.80;83.90;;;17.10;70.39;94815.16;4994886;28;20665;-82
2022/09/10 07:27:09;;;;;;;0.50;0.50;;;17.00;84.10;;;17.29;70.69;94818.44;5010843;28;20746;-81
2022/09/10 07:29:39;;;;;;;0.50;0.50;;;17.20;84.40;;;17.49;70.22;94816.41;5003642;28;20250;-82
2022/09/10 07:32:13;;;;;;;0.50;0.50;;;17.40;84.10;;;17.74;70.00;94826.66;5032077;28;20664;-81
2022/09/10 07:34:40;;;;;;;0.45;0.45;;;17.60;84.30;;;17.99;70.67;94822.84;5004380;28;20211;-82
2022/09/10 07:37:07;;;;;;;0.50;0.50;;;17.90;84.60;;;18.23;70.84;94815.53;5014021;28;20220;-81
2022/09/10 07:39:35;;;;;;;0.60;0.60;;;18.10;84.50;;;18.44;70.49;94814.00;4985357;28;20209;-81
2022/09/10 07:42:02;;;;;;;0.40;0.40;;;18.40;84.50;;;18.64;69.16;94810.00;5011494;28;20220;-82
2022/09/10 07:44:33;;;;;;;0.40;0.40;;;18.60;83.00;;;18.82;68.99;94824.88;5019421;28;20299;-82
2022/09/10 07:47:02;;;;;;;0.47;0.47;;;18.80;82.80;;;18.92;67.90;94813.59;5016469;28;21005;-81
2022/09/10 07:49:31;;;;;;;0.40;0.40;;;18.90;82.00;;;19.00;67.23;94811.31;5009982;28;20197;-82
2022/09/10 07:51:59;;;;;;;0.40;0.40;;;19.00;81.10;;;18.99;66.85;94809.72;5011685;28;20689;-81
2022/09/10 07:54:34;;;;;;;0.43;0.43;;;19.10;81.10;;;19.07;66.61;94815.66;5014084;28;20322;-81
2022/09/10 07:57:03;;;;;;;0.40;0.40;;;19.20;81.30;;;19.11;66.85;94819.41;5010055;28;20287;-82
2022/09/10 07:59:31;;;;;;;0.50;0.50;;;19.20;80.80;;;19.16;67.14;94817.63;5007368;28;20718;-82
2022/09/10 08:02:01;;;;;;;0.40;0.40;;;19.30;80.90;;;19.20;66.71;94818.72;5003066;28;20758;-82
2022/09/10 08:04:30;;;;;;;0.50;0.50;;;19.30;80.50;;;19.26;66.57;94813.47;4996809;28;20200;-80
2022/09/10 08:07:07;;;;;;;0.50;0.50;;;19.40;80.10;;;19.30;66.76;94830.56;5007598;28;20226;-81
2022/09/10 08:09:37;;;;;;;0.50;0.50;;;19.40;80.30;;;19.28;65.29;94812.16;4989206;28;20232;-81
2022/09/10 08:12:07;;;;;;;0.50;0.50;;;19.50;79.80;;;19.30;65.40;94809.28;5010999;28;20232;-82
2022/09/10 08:14:36;;;;;;;0.45;0.45;;;19.50;79.20;;;19.37;65.28;94825.81;5019739;28;20203;-82
2022/09/10 08:17:04;;;;;;;0.50;0.50;;;19.60;79.70;;;19.39;65.02;94814.94;5005785;28;20303;-82
2022/09/10 08:19:36;;;;;;;0.50;0.50;;;19.60;79.40;;;19.41;65.17;94810.97;4989902;28;20208;-82
2022/09/10 08:22:06;;;;;;;0.40;0.40;;;19.60;79.30;;;19.46;65.18;94818.22;5011010;28;20275;-81
2022/09/10 08:24:43;;;;;;;0.50;0.50;;;19.70;78.90;;;19.57;65.31;94813.81;4997306;28;20197;-81
2022/09/10 08:27:10;;;;;;;0.70;0.70;;;19.70;79.10;;;19.57;63.89;94809.28;5004372;28;20230;-82
2022/09/10 08:29:38;;;;;;;0.40;0.40;;;19.90;79.20;;;19.67;63.72;94816.56;5011150;28;20196;-81
2022/09/10 08:32:11;;;;;;;0.45;0.45;;;19.90;78.50;;;19.76;63.79;94806.25;4995622;28;20224;-81
2022/09/10 08:34:39;;;;;;;0.40;0.40;;;19.90;78.50;;;19.90;64.27;94804.03;5019261;28;20201;-81
2022/09/10 08:37:09;;;;;;;0.40;0.40;;;20.10;78.10;;;20.05;63.75;94811.34;5011094;28;20299;-81
2022/09/10 08:39:39;;;;;;;0.40;0.40;;;20.10;78.00;;;20.17;63.37;94809.31;4990525;28;20293;-81
2022/09/10 08:42:13;;;;;;;0.40;0.40;;;20.20;78.00;;;20.29;63.45;94804.59;5012858;28;20296;-80
2022/09/10 08:44:57;;;;;;;0.50;0.50;;;20.40;78.20;;;20.42;63.65;94803.38;5016349;28;20192;-81
2022/09/10 08:48:02;;;;;;;0.50;0.50;;;20.50;78.10;;;20.58;63.92;94806.91;5011044;28;20219;-80
2022/09/10 08:51:14;;;;;;;0.50;0.50;;;20.60;78.00;;;20.83;64.15;94804.69;5018537;28;20209;-80
2022/09/10 08:53:58;;;;;;;0.70;0.70;;;20.80;77.80;;;21.08;63.76;94807.47;5008965;28;20231;-82
2022/09/10 08:56:29;;;;;;;0.57;0.57;;;21.10;78.50;;;21.28;63.43;94800.59;4999977;28;20228;-81
2022/09/10 08:59:04;;;;;;;0.40;0.40;;;21.30;78.00;;;21.40;63.01;94811.84;4985531;28;20204;-81
2022/09/10 09:01:50;;;;;;;0.50;0.50;;;21.50;77.80;;;21.49;62.63;94809.44;5009156;28;20257;-81
2022/09/10 09:04:39;;;;;;;0.40;0.40;;;21.60;77.50;;;21.54;60.58;94812.13;5034911;28;20273;-82
2022/09/10 09:07:38;;;;;;;0.40;0.40;;;21.80;75.90;;;21.56;61.52;94810.03;5023871;28;20220;-82
2022/09/10 09:10:43;;;;;;;0.43;0.43;;;21.80;76.10;;;21.59;61.58;94806.03;5001123;28;20196;-81
2022/09/10 09:13:40;;;;;;;0.40;0.40;;;21.90;76.00;;;21.64;61.42;94802.59;4994787;28;20310;-81
2022/09/10 09:16:21;;;;;;;0.40;0.40;;;21.90;75.30;;;21.64;61.01;94802.59;5029272;28;20302;-80
2022/09/10 09:19:00;;;;;;;0.52;0.52;;;21.90;75.30;;;21.64;60.58;94805.25;5011735;28;20666;-80
2022/09/10 09:21:40;;;;;;;0.50;0.50;;;21.90;75.00;;;21.50;56.77;94808.41;5011169;28;20697;-81
2022/09/10 09:24:43;;;;;;;0.52;0.52;;;21.90;72.60;;;21.37;57.38;94812.38;5015212;28;20230;-79
2022/09/10 09:27:16;;;;;;;0.40;0.40;;;21.80;72.30;;;21.31;57.80;94800.06;5007216;28;20635;-81
2022/09/10 09:30:06;;;;;;;0.30;0.30;;;21.80;72.90;;;21.31;58.87;94809.94;5008001;28;20650;-81
2022/09/10 09:32:41;;;;;;;0.40;0.40;;;21.70;73.40;;;21.34;58.96;94804.88;5005142;28;20273;-80
2022/09/10 09:35:43;;;;;;;0.50;0.50;;;21.60;72.70;;;21.30;58.04;94817.16;5022916;28;20764;-80
2022/09/10 09:38:32;;;;;;;0.50;0.50;;;21.70;72.80;;;21.34;58.56;94812.88;5001154;28;20697;-80
2022/09/10 09:41:07;;;;;;;0.47;0.47;;;21.70;73.20;;;21.35;57.06;94813.69;4989631;28;20668;-81
2022/09/10 09:43:55;;;;;;;0.50;0.50;;;21.70;72.30;;;21.30;56.51;94816.34;5019846;28;20243;-81
2022/09/10 09:46:24;;;;;;;0.50;0.50;;;21.70;72.10;;;21.26;58.04;94811.53;5027307;28;20268;-81
2022/09/10 09:49:00;;;;;;;0.35;0.35;;;21.70;72.80;;;21.28;58.27;94809.41;4996547;28;20215;-83
2022/09/10 09:51:34;;;;;;;0.30;0.30;;;21.70;72.30;;;21.35;58.94;94811.84;5000200;28;20234;-82
2022/09/10 09:54:10;;;;;;;0.60;0.60;;;21.70;73.50;;;21.48;59.33;94807.84;5013694;28;20718;-82
2022/09/10 09:56:58;;;;;;;0.40;0.40;;;21.70;73.50;;;21.62;58.42;94810.84;5012266;28;20595;-80
2022/09/10 09:59:34;;;;;;;0.50;0.50;;;21.80;73.60;;;21.74;58.52;94791.94;5026256;28;20613;-82
2022/09/10 10:02:13;;;;;;;0.40;0.40;;;21.90;73.40;;;21.84;56.83;94809.84;5001619;28;20204;-80
2022/09/10 10:05:23;;;;;;;0.40;0.40;;;22.00;72.30;;;21.88;57.47;94800.22;4997179;28;20226;-81
2022/09/10 10:07:51;;;;;;;0.50;0.50;;;22.10;72.30;;;21.95;57.48;94795.41;5031397;28;20701;-82
2022/09/10 10:10:24;;;;;;;0.40;0.40;;;22.20;72.40;;;22.07;57.59;94795.16;5022844;28;20200;-80
2022/09/10 10:12:54;;;;;;;0.40;0.40;;;22.30;72.10;;;22.15;58.30;94788.47;4997956;28;20220;-82
2022/09/10 10:15:43;;;;;;;0.30;0.30;;;22.30;72.50;;;22.25;58.18;94791.13;5010766;28;20203;-82
2022/09/10 10:18:32;;;;;;;0.40;0.40;;;22.50;72.00;;;22.37;58.02;94782.84;5015351;28;20557;-81
2022/09/10 10:21:30;;;;;;;0.60;0.60;;;22.50;71.60;;;22.45;56.56;94773.50;4996234;28;20189;-81
2022/09/10 10:23:58;;;;;;;0.50;0.50;;;22.70;72.20;;;22.51;56.92;94775.91;4994898;28;20216;-81
2022/09/10 10:26:35;;;;;;;0.40;0.40;;;22.80;71.30;;;22.60;56.93;94765.44;5009836;28;20209;-82
2022/09/10 10:29:15;;;;;;;0.50;0.50;;;22.80;71.70;;;22.74;56.91;94780.91;5026269;28;20212;-82
2022/09/10 10:31:45;;;;;;;0.50;0.50;;;22.90;71.20;;;22.86;56.78;94781.41;5008446;28;20312;-80
2022/09/10 10:34:15;;;;;;;0.30;0.30;;;23.00;71.90;;;22.97;55.81;94774.97;5014758;28;20188;-81
2022/09/10 10:37:13;;;;;;;0.47;0.47;;;23.10;70.70;;;23.15;57.10;94773.53;5022819;28;20693;-80
2022/09/10 10:39:43;;;;;;;0.40;0.40;;;23.30;71.90;;;23.28;55.44;94763.34;5015868;28;20197;-82
2022/09/10 10:42:39;;;;;;;0.40;0.40;;;23.40;70.90;;;23.36;54.83;94761.97;5015455;28;20221;-81
2022/09/10 10:45:43;;;;;;;0.40;0.40;;;23.50;68.50;;;23.38;55.08;94759.81;5020033;28;20226;-79
2022/09/10 10:48:33;;;;;;;0.30;0.30;;;23.50;70.10;;;23.40;54.39;94765.69;5006890;28;20270;-79
2022/09/10 10:51:13;;;;;;;0.50;0.50;;;23.60;67.60;;;23.22;53.13;94767.91;5012982;28;20203;-79